createdAt,value
2019-06-08T00:01:16.413Z,99.90
2019-06-08T00:04:20.711Z,99.90
2019-06-08T00:07:24.631Z,99.90
2019-06-08T00:10:28.540Z,99.90
2019-06-08T00:13:32.469Z,99.90
2019-06-08T00:16:36.330Z,99.90
2019-06-08T00:19:40.210Z,99.90
2019-06-08T00:22:44.066Z,99.90
2019-06-08T00:25:47.900Z,99.90
2019-06-08T00:28:51.799Z,99.90
2019-06-08T00:31:55.636Z,99.90
2019-06-08T00:34:59.527Z,99.90
2019-06-08T00:38:03.380Z,99.90
2019-06-08T00:41:07.259Z,99.90
2019-06-08T00:44:11.099Z,99.90
2019-06-08T00:47:16.286Z,99.90
2019-06-08T00:50:20.994Z,99.90
2019-06-08T00:53:25.326Z,99.90
2019-06-08T00:56:30.006Z,99.90
2019-06-08T00:59:34.026Z,99.90
2019-06-08T01:02:37.867Z,99.90
2019-06-08T01:05:41.802Z,99.90
2019-06-08T01:08:45.668Z,99.90
2019-06-08T01:11:49.586Z,99.90
2019-06-08T01:14:53.419Z,99.90
2019-06-08T01:18:02.592Z,99.90
2019-06-08T01:21:02.777Z,99.90
2019-06-08T01:24:06.691Z,99.90
2019-06-08T01:27:10.537Z,99.90
2019-06-08T01:30:14.996Z,99.90
2019-06-08T01:33:18.841Z,99.90
2019-06-08T01:36:22.823Z,99.90
2019-06-08T01:39:27.266Z,99.90
2019-06-08T01:42:31.894Z,99.90
2019-06-08T01:45:35.772Z,99.90
2019-06-08T01:48:39.640Z,99.90
2019-06-08T01:51:43.487Z,99.90
2019-06-08T01:54:47.362Z,99.90
2019-06-08T01:57:51.212Z,99.90
2019-06-08T02:00:55.081Z,99.90
2019-06-08T02:03:58.931Z,99.90
2019-06-08T02:07:02.796Z,99.90
2019-06-08T02:10:08.681Z,99.90
2019-06-08T02:13:12.539Z,99.90
2019-06-08T02:16:16.542Z,99.90
2019-06-08T02:19:20.340Z,99.90
2019-06-08T02:22:24.214Z,99.90
2019-06-08T02:25:29.432Z,99.90
2019-06-08T02:28:33.669Z,99.90
2019-06-08T02:31:37.869Z,99.90
2019-06-08T02:34:41.868Z,99.90
2019-06-08T02:37:45.779Z,99.90
2019-06-08T02:40:49.660Z,99.90
2019-06-08T02:43:53.567Z,99.90
2019-06-08T02:46:57.625Z,99.90
2019-06-08T02:50:01.711Z,99.90
2019-06-08T02:53:06.039Z,99.90
2019-06-08T02:56:12.819Z,99.90
2019-06-08T02:59:18.339Z,99.90
2019-06-08T03:02:23.882Z,99.90
2019-06-08T03:05:29.717Z,99.90
2019-06-08T03:08:36.330Z,99.90
2019-06-08T03:11:41.872Z,99.90
2019-06-08T03:14:47.255Z,99.90
2019-06-08T03:17:51.101Z,99.90
2019-06-08T03:20:55.017Z,99.90
2019-06-08T03:23:59.156Z,99.90
2019-06-08T03:27:03.059Z,99.90
2019-06-08T03:30:17.572Z,99.90
2019-06-08T03:33:13.354Z,99.90
2019-06-08T03:36:17.375Z,99.90
2019-06-08T03:39:21.227Z,99.90
2019-06-08T03:42:25.087Z,99.90
2019-06-08T03:45:28.966Z,99.90
2019-06-08T03:48:34.884Z,99.90
2019-06-08T03:51:41.832Z,99.90
2019-06-08T03:54:45.233Z,99.90
2019-06-08T03:57:50.781Z,99.90
2019-06-08T04:00:54.648Z,99.90
2019-06-08T04:04:00.140Z,99.90
2019-06-08T04:07:04.181Z,99.90
2019-06-08T04:10:08.116Z,99.90
2019-06-08T04:13:12.062Z,99.90
2019-06-08T04:16:15.911Z,99.90
2019-06-08T04:19:19.806Z,99.90
2019-06-08T04:22:23.673Z,99.90
2019-06-08T04:25:27.577Z,99.90
2019-06-08T04:28:31.465Z,99.90
2019-06-08T04:31:35.351Z,99.90
2019-06-08T04:34:40.882Z,99.90
2019-06-08T04:37:46.778Z,99.90
2019-06-08T04:40:50.407Z,99.90
2019-06-08T04:43:54.307Z,99.90
2019-06-08T04:46:58.153Z,99.90
2019-06-08T04:50:20.899Z,99.90
2019-06-08T04:53:07.572Z,99.90
2019-06-08T04:56:11.459Z,99.90
2019-06-08T04:59:15.294Z,99.90
2019-06-08T05:02:19.165Z,99.90
2019-06-08T05:05:23.010Z,99.90
2019-06-08T05:08:26.855Z,99.90
2019-06-08T05:11:30.706Z,99.90
2019-06-08T05:14:34.522Z,99.90
2019-06-08T05:17:39.287Z,99.90
2019-06-08T05:20:45.518Z,99.90
2019-06-08T05:23:57.916Z,99.90
2019-06-08T05:26:54.308Z,95.90
2019-06-08T05:29:58.254Z,95.10
2019-06-08T05:33:02.151Z,93.50
2019-06-08T05:36:06.049Z,92.00
2019-06-08T05:39:10.068Z,91.70
2019-06-08T05:42:13.885Z,83.50
2019-06-08T05:45:17.990Z,78.70
2019-06-08T05:48:21.845Z,73.60
2019-06-08T05:51:25.761Z,67.50
2019-06-08T05:54:29.731Z,65.50
2019-06-08T05:57:33.568Z,65.90
2019-06-08T06:00:37.407Z,63.60
2019-06-08T06:03:42.276Z,60.70
2019-06-08T06:06:46.627Z,60.00
2019-06-08T06:09:51.106Z,56.40
2019-06-08T06:12:55.286Z,55.10
2019-06-08T06:15:59.182Z,54.40
2019-06-08T06:19:03.548Z,51.90
2019-06-08T06:22:07.465Z,53.40
2019-06-08T06:25:12.152Z,51.30
2019-06-08T06:28:16.013Z,51.60
2019-06-08T06:31:19.890Z,50.60
2019-06-08T06:34:23.723Z,48.40
2019-06-08T06:37:27.586Z,48.40
2019-06-08T06:40:31.484Z,47.40
2019-06-08T06:43:35.338Z,48.70
2019-06-08T06:46:39.180Z,45.40
2019-06-08T06:49:44.453Z,44.80
2019-06-08T06:52:48.953Z,46.10
2019-06-08T06:55:53.382Z,42.40
2019-06-08T06:58:57.380Z,43.60
2019-06-08T07:02:01.468Z,41.70
2019-06-08T07:05:07.158Z,42.80
2019-06-08T07:08:10.982Z,42.60
2019-06-08T07:11:15.196Z,40.90
2019-06-08T07:14:19.110Z,40.70
2019-06-08T07:17:23.050Z,38.80
2019-06-08T07:20:26.968Z,39.10
2019-06-08T07:23:30.888Z,41.30
2019-06-08T07:26:34.715Z,40.40
2019-06-08T07:29:38.610Z,39.40
2019-06-08T07:32:42.435Z,38.00
2019-06-08T07:35:47.003Z,38.60
2019-06-08T07:38:51.934Z,39.60
2019-06-08T07:41:56.011Z,38.40
2019-06-08T07:45:00.424Z,38.00
2019-06-08T07:48:04.686Z,37.10
2019-06-08T07:51:08.568Z,37.00
2019-06-08T07:54:12.464Z,38.10
2019-06-08T07:57:16.376Z,38.70
2019-06-08T08:00:20.336Z,36.70
2019-06-08T08:03:24.186Z,36.60
2019-06-08T08:06:30.345Z,41.80
2019-06-08T08:09:33.767Z,43.30
2019-06-08T08:12:37.715Z,45.90
2019-06-08T08:15:41.573Z,49.30
2019-06-08T08:18:45.457Z,49.40
2019-06-08T08:21:51.851Z,51.90
2019-06-08T08:24:57.931Z,51.90
2019-06-08T08:28:01.055Z,52.90
2019-06-08T08:31:05.071Z,52.40
2019-06-08T08:34:09.170Z,52.90
2019-06-08T08:37:13.116Z,52.30
2019-06-08T08:40:17.850Z,53.60
2019-06-08T08:43:23.102Z,53.90
2019-06-08T08:46:28.565Z,52.20
2019-06-08T08:49:33.590Z,53.20
2019-06-08T08:52:40.772Z,50.90
2019-06-08T08:55:43.357Z,53.30
2019-06-08T08:58:47.772Z,52.00
2019-06-08T09:01:52.878Z,53.70
2019-06-08T09:04:59.670Z,54.70
2019-06-08T09:08:03.733Z,54.60
2019-06-08T09:11:08.288Z,56.30
2019-06-08T09:14:14.022Z,55.40
2019-06-08T09:17:18.188Z,54.00
2019-06-08T09:20:22.246Z,56.40
2019-06-08T09:23:27.998Z,53.40
2019-06-08T09:26:31.658Z,54.00
2019-06-08T09:29:35.572Z,54.80
2019-06-08T09:32:39.590Z,57.70
2019-06-08T09:35:43.489Z,54.10
2019-06-08T09:38:47.905Z,55.30
2019-06-08T09:41:53.665Z,57.40
2019-06-08T09:45:00.379Z,55.70
2019-06-08T09:48:05.539Z,59.70
2019-06-08T09:51:09.314Z,54.60
2019-06-08T09:54:13.480Z,54.10
2019-06-08T09:57:18.809Z,56.80
2019-06-08T10:00:26.389Z,54.60
2019-06-08T10:03:30.835Z,54.80
2019-06-08T10:06:34.086Z,57.40
2019-06-08T10:09:38.199Z,55.70
2019-06-08T10:12:42.233Z,57.00
2019-06-08T10:15:48.734Z,58.50
2019-06-08T10:18:51.675Z,57.50
2019-06-08T10:21:56.778Z,56.50
2019-06-08T10:25:04.139Z,59.10
2019-06-08T10:28:11.333Z,58.50
2019-06-08T10:31:11.801Z,59.10
2019-06-08T10:34:15.676Z,60.90
2019-06-08T10:37:19.610Z,60.20
2019-06-08T10:40:23.535Z,59.60
2019-06-08T10:43:28.919Z,59.60
2019-06-08T10:46:32.875Z,64.90
2019-06-08T10:49:38.439Z,61.00
2019-06-08T10:52:42.512Z,60.50
2019-06-08T10:55:48.191Z,62.30
2019-06-08T10:58:51.853Z,63.10
2019-06-08T11:01:55.774Z,59.80
2019-06-08T11:05:04.727Z,63.20
2019-06-08T11:08:12.977Z,66.80
2019-06-08T11:11:12.613Z,60.50
2019-06-08T11:14:18.449Z,58.90
2019-06-08T11:17:22.067Z,58.30
2019-06-08T11:20:27.594Z,59.70
2019-06-08T11:23:31.426Z,59.80
2019-06-08T11:26:40.038Z,63.00
2019-06-08T11:29:41.670Z,63.30
2019-06-08T11:32:47.904Z,62.00
2019-06-08T11:35:51.048Z,60.70
2019-06-08T11:38:55.059Z,62.50
2019-06-08T11:42:00.277Z,67.20
2019-06-08T11:45:11.153Z,66.40
2019-06-08T11:48:14.776Z,64.60
2019-06-08T11:51:18.640Z,64.10
2019-06-08T11:54:36.183Z,65.40
2019-06-08T11:57:28.493Z,67.70
2019-06-08T12:01:01.789Z,68.80
2019-06-08T12:04:09.837Z,68.70
2019-06-08T12:07:14.418Z,65.20
2019-06-08T12:10:18.257Z,68.10
2019-06-08T12:13:22.170Z,68.70
2019-06-08T12:16:28.090Z,69.90
2019-06-08T12:19:31.678Z,70.90
2019-06-08T12:22:37.719Z,67.90
2019-06-08T12:25:41.119Z,66.10
2019-06-08T12:28:45.022Z,68.10
2019-06-08T12:31:54.042Z,67.60
2019-06-08T12:34:59.759Z,71.40
2019-06-08T12:38:03.191Z,69.40
2019-06-08T12:41:09.135Z,66.20
2019-06-08T12:44:15.092Z,65.30
2019-06-08T12:47:25.832Z,68.80
2019-06-08T12:50:23.745Z,68.60
2019-06-08T12:53:28.273Z,70.20
2019-06-08T12:56:32.272Z,67.50
2019-06-08T12:59:38.310Z,68.40
2019-06-08T13:02:41.588Z,68.40
2019-06-08T13:05:45.432Z,67.50
2019-06-08T13:08:49.245Z,69.60
2019-06-08T13:11:55.750Z,72.30
2019-06-08T13:14:58.599Z,72.50
2019-06-08T13:18:02.521Z,73.20
2019-06-08T13:21:16.658Z,72.60
2019-06-08T13:24:13.074Z,73.50
2019-06-08T13:27:21.135Z,72.80
2019-06-08T13:30:25.826Z,72.60
2019-06-08T13:33:28.252Z,72.40
2019-06-08T13:36:32.208Z,76.20
2019-06-08T13:39:38.649Z,74.70
2019-06-08T13:42:41.565Z,76.00
2019-06-08T13:45:45.373Z,74.60
2019-06-08T13:48:49.247Z,75.30
2019-06-08T13:51:53.086Z,77.00
2019-06-08T13:54:58.324Z,77.00
2019-06-08T13:58:02.285Z,78.90
2019-06-08T14:01:08.859Z,80.00
2019-06-08T14:04:11.618Z,81.60
2019-06-08T14:07:18.861Z,79.60
2019-06-08T14:10:24.514Z,80.90
2019-06-08T14:13:34.086Z,80.80
2019-06-08T14:16:34.996Z,82.90
2019-06-08T14:19:38.907Z,82.10
2019-06-08T14:22:42.805Z,86.40
2019-06-08T14:25:53.692Z,86.40
2019-06-08T14:28:52.132Z,86.60
2019-06-08T14:31:57.808Z,86.70
2019-06-08T14:35:02.975Z,89.50
2019-06-08T14:38:07.007Z,90.20
2019-06-08T14:41:10.885Z,92.00
2019-06-08T14:44:14.750Z,92.40
2019-06-08T14:47:18.745Z,95.30
2019-06-08T14:50:22.913Z,96.80
2019-06-08T14:53:26.861Z,97.70
2019-06-08T14:56:31.792Z,99.00
2019-06-08T14:59:35.686Z,99.90
2019-06-08T15:02:39.541Z,99.90
2019-06-08T15:05:43.387Z,99.90
2019-06-08T15:08:50.060Z,99.90
2019-06-08T15:11:52.704Z,99.90
2019-06-08T15:14:58.036Z,99.90
2019-06-08T15:18:04.797Z,99.90
2019-06-08T15:21:07.926Z,99.90
2019-06-08T15:24:11.890Z,99.90
2019-06-08T15:27:20.960Z,99.90
2019-06-08T15:30:21.690Z,99.90
2019-06-08T15:33:26.974Z,99.90
2019-06-08T15:36:32.570Z,99.90
2019-06-08T15:39:38.643Z,99.90
2019-06-08T15:42:42.362Z,99.90
2019-06-08T15:45:51.060Z,99.90
2019-06-08T15:48:51.783Z,99.90
2019-06-08T15:51:57.781Z,99.90
2019-06-08T15:55:01.663Z,99.90
2019-06-08T15:58:05.680Z,99.90
2019-06-08T16:01:09.686Z,99.90
2019-06-08T16:04:13.521Z,99.90
2019-06-08T16:07:17.620Z,99.90
2019-06-08T16:10:21.738Z,99.90
2019-06-08T16:13:26.722Z,99.90
2019-06-08T16:16:31.137Z,99.90
2019-06-08T16:19:35.954Z,99.90
2019-06-08T16:22:39.946Z,99.90
2019-06-08T16:25:43.790Z,99.90
2019-06-08T16:28:47.761Z,99.90
2019-06-08T16:31:51.781Z,99.90
2019-06-08T16:34:55.586Z,99.90
2019-06-08T16:37:59.443Z,99.90
2019-06-08T16:41:03.305Z,99.90
2019-06-08T16:44:07.507Z,99.90
2019-06-08T16:47:11.470Z,99.90
2019-06-08T16:50:24.150Z,99.90
2019-06-08T16:53:21.192Z,99.90
2019-06-08T16:56:25.025Z,99.90
2019-06-08T16:59:30.150Z,99.90
2019-06-08T17:02:34.856Z,99.90
2019-06-08T17:05:39.115Z,99.90
2019-06-08T17:08:43.021Z,99.90
2019-06-08T17:11:46.871Z,99.90
2019-06-08T17:14:50.729Z,99.90
2019-06-08T17:17:54.577Z,99.90
2019-06-08T17:20:58.552Z,99.90
2019-06-08T17:24:02.461Z,99.90
2019-06-08T17:27:06.441Z,99.90
2019-06-08T17:30:10.926Z,99.90
2019-06-08T17:33:14.937Z,99.90
2019-06-08T17:36:18.756Z,99.90
2019-06-08T17:39:22.729Z,99.90
2019-06-08T17:42:26.533Z,99.90
2019-06-08T17:45:30.387Z,99.90
2019-06-08T17:48:34.881Z,99.90
2019-06-08T17:51:39.240Z,99.90
2019-06-08T17:54:43.447Z,99.90
2019-06-08T17:57:53.182Z,99.90
2019-06-08T18:00:52.957Z,99.90
2019-06-08T18:03:57.467Z,99.90
2019-06-08T18:07:01.404Z,99.90
2019-06-08T18:10:07.177Z,99.90
2019-06-08T18:13:11.093Z,99.90
2019-06-08T18:16:17.476Z,99.90
2019-06-08T18:19:29.212Z,99.90
2019-06-08T18:22:34.201Z,99.90
2019-06-08T18:25:40.225Z,99.90
2019-06-08T18:28:44.984Z,99.90
2019-06-08T18:31:49.285Z,99.90
2019-06-08T18:34:53.200Z,99.90
2019-06-08T18:37:57.779Z,99.90
2019-06-08T18:41:01.799Z,99.90
2019-06-08T18:44:07.924Z,99.90
2019-06-08T18:47:11.185Z,99.90
2019-06-08T18:50:17.325Z,99.90
2019-06-08T18:53:21.415Z,99.90
2019-06-08T18:56:27.464Z,99.90
2019-06-08T18:59:30.755Z,99.90
2019-06-08T19:02:34.637Z,99.90
2019-06-08T19:05:42.278Z,99.90
2019-06-08T19:08:45.411Z,99.90
2019-06-08T19:11:50.153Z,99.90
2019-06-08T19:14:54.126Z,99.90
2019-06-08T19:17:58.401Z,99.90
2019-06-08T19:21:02.231Z,99.90
2019-06-08T19:24:09.657Z,99.90
2019-06-08T19:27:11.576Z,99.90
2019-06-08T19:30:15.597Z,99.90
2019-06-08T19:33:21.147Z,99.90
2019-06-08T19:36:24.994Z,99.90
2019-06-08T19:39:28.829Z,99.90
2019-06-08T19:42:40.032Z,99.90
2019-06-08T19:45:40.218Z,99.90
2019-06-08T19:48:44.471Z,99.90
2019-06-08T19:51:53.811Z,99.90
2019-06-08T19:54:55.141Z,99.90
2019-06-08T19:57:59.067Z,99.90
2019-06-08T20:01:02.982Z,99.90
2019-06-08T20:04:07.370Z,99.90
2019-06-08T20:07:11.514Z,99.90
2019-06-08T20:10:17.678Z,99.90
2019-06-08T20:13:21.600Z,99.90
2019-06-08T20:16:27.732Z,99.90
2019-06-08T20:19:31.122Z,99.90
2019-06-08T20:22:37.314Z,99.90
2019-06-08T20:25:41.082Z,99.90
2019-06-08T20:28:46.265Z,99.90
2019-06-08T20:31:52.159Z,99.90
2019-06-08T20:34:59.088Z,99.90
2019-06-08T20:38:03.348Z,99.90
2019-06-08T20:41:07.987Z,99.90
2019-06-08T20:44:12.264Z,99.90
2019-06-08T20:47:17.906Z,99.90
2019-06-08T20:50:24.334Z,99.90
2019-06-08T20:53:28.932Z,99.90
2019-06-08T20:56:37.030Z,99.90
2019-06-08T20:59:39.986Z,99.90
2019-06-08T21:02:45.650Z,99.90
2019-06-08T21:05:51.428Z,99.90
2019-06-08T21:08:57.652Z,99.90
2019-06-08T21:12:01.969Z,99.90
2019-06-08T21:15:07.732Z,99.90
2019-06-08T21:18:11.768Z,99.90
2019-06-08T21:21:17.549Z,99.90
2019-06-08T21:24:21.966Z,99.90
2019-06-08T21:27:27.697Z,99.90
2019-06-08T21:30:32.438Z,99.90
2019-06-08T21:33:37.959Z,99.90
2019-06-08T21:36:41.974Z,99.90
2019-06-08T21:39:50.437Z,99.90
2019-06-08T21:42:53.895Z,99.90
2019-06-08T21:46:00.904Z,99.90
2019-06-08T21:49:02.990Z,99.90
2019-06-08T21:52:07.298Z,99.90
2019-06-08T21:55:11.690Z,99.90
2019-06-08T21:58:17.739Z,99.90
2019-06-08T22:01:21.146Z,99.90
2019-06-08T22:04:27.261Z,99.90
2019-06-08T22:07:30.496Z,99.90
2019-06-08T22:10:34.345Z,99.90
2019-06-08T22:13:38.337Z,99.90
2019-06-08T22:16:42.266Z,99.90
2019-06-08T22:19:47.489Z,99.90
2019-06-08T22:22:51.954Z,99.90
2019-06-08T22:25:59.222Z,99.90
2019-06-08T22:29:03.638Z,99.90
2019-06-08T22:32:07.848Z,99.90
2019-06-08T22:35:11.785Z,99.90
2019-06-08T22:38:17.601Z,99.90
2019-06-08T22:41:21.145Z,99.90
2019-06-08T22:44:25.031Z,99.90
2019-06-08T22:47:28.862Z,99.90
2019-06-08T22:50:32.730Z,99.90
2019-06-08T22:53:38.349Z,99.90
2019-06-08T22:56:42.042Z,99.90
2019-06-08T22:59:47.703Z,99.90
2019-06-08T23:02:51.471Z,99.90
2019-06-08T23:05:59.171Z,99.90
2019-06-08T23:09:02.975Z,99.90
2019-06-08T23:12:09.288Z,99.90
2019-06-08T23:15:12.371Z,99.90
2019-06-08T23:18:17.908Z,99.90
2019-06-08T23:21:21.698Z,99.90
2019-06-08T23:24:27.594Z,99.90
2019-06-08T23:27:31.568Z,99.90
2019-06-08T23:30:35.417Z,99.90
2019-06-08T23:33:39.274Z,99.90
2019-06-08T23:36:57.622Z,99.90
2019-06-08T23:39:48.754Z,99.90
2019-06-08T23:42:52.620Z,99.90
2019-06-08T23:45:58.294Z,99.90
2019-06-08T23:49:03.657Z,99.90
2019-06-08T23:52:10.399Z,99.90
2019-06-08T23:55:13.387Z,99.90
2019-06-08T23:58:17.663Z,99.90
